Airfield :
LOGIN :

Register | Disclaimer

   EN    FR    IT 

 










Legend :    VFR   Marginal VFR   IFR   Intensive IFR   Very Intensive IFR
Visi :
Ceiling :
>= 8 km
>= 3000ft
5 to 8 km
1000 to 3000 ft
1500m to 5 km
500 to 1000 ft
800 to 1500m
200 to 500 ft
< 800m
< 200 ft
Symbols :   Thunderstorms  Fog  Heavy snow  Heavy precipitations  Wind > 20 kt
SIGMETs :     Misc.  Thunderstorms  Icing  Turbulence  Mountain Waves  Volcanic Ashes







- Airport Elevation : 13 ft
- IATA code : LYX
- Download approach charts


EGMD - Lydd

CURRENT METAR :
  • 190650Z AUTO 13008KT 9999 NCD 16/15 Q1006

EXPIRED METARs :
  • 190620Z AUTO 14006KT 9999 NCD 15/15 Q1007
  • 190550Z AUTO 14007KT 9999 NCD 15/15 Q1007
  • 190520Z AUTO 14006KT 7000 FEW002/// 15/15 Q1007
  • 190450Z AUTO 14007KT 6000 NCD 15/15 Q1007
  • 190420Z AUTO 15007KT 6000 NCD 15/15 Q1008

TAF TAF EGMD
Valid from the 19 at 06:00 until the 19 at 15:00 UTC


190510Z 1906/1915 12005KT 9999 SCT025
TEMPO 1906/1909 3000 BR BKN002
ATIS : +44 1797 322 422
No reported NOTAMs for that airfield.



MET'MAP, your aeronautical weather chart ! - Copyright ORBIFLY December 2007 - Disclaimer

ORBIFLY MET'MAP TEAM :

Programming & Development : Alexandra Zaïnal
Concept & Development : Baudouin d'Aumeries
Co-Development & Prog : Marc-Olivier Méhu
Technical & hardware support : Manuel Goepfert

Contact : metmap@orbifly.com




SOURCES & CREDITS :

   NOAA